Time;durP1;ratioP1;P1;durP2;ratioP2;P2;SDS_P1;SDS_P2;PMS_P1;PMS_P2;Temp;Humidity;BMP_temperature;BMP_pressure;BME280_temperature;BME280_humidity;BME280_pressure;Samples;Min_cycle;Max_cycle;Signal;HPM_P1;HPM_P2
2022/07/03 00:01:10;;;;;;;;;;;;;;;;;;5047214;28;19905;-52
2022/07/03 00:03:35;;;;;;;;;;;;;;;;;;5046556;28;19913;-49
2022/07/03 00:06:02;;;;;;;;;;;;;;;;;;5046434;28;19916;-49
2022/07/03 00:08:28;;;;;;;;;;;;;;;;;;5046590;28;19916;-51
2022/07/03 00:10:54;;;;;;;;;;;;;;;;;;5046884;28;19905;-51
2022/07/03 00:13:21;;;;;;;;;;;;;;;;;;5046589;28;19916;-50
2022/07/03 00:15:47;;;;;;;;;;;;;;;;;;5046789;28;19909;-49
2022/07/03 00:18:13;;;;;;;;;;;;;;;;;;5046333;28;19912;-51
2022/07/03 00:20:40;;;;;;;;;;;;;;;;;;5046790;28;19908;-52
2022/07/03 00:23:05;;;;;;;;;;;;;;;;;;5046854;28;19912;-50
2022/07/03 00:25:33;;;;;;;;;;;;;;;;;;5046801;28;20431;-49
2022/07/03 00:27:59;;;;;;;;;;;;;;;;;;5046700;28;20003;-49
2022/07/03 00:30:25;;;;;;;;;;;;;;;;;;5046542;28;19991;-49
2022/07/03 00:32:51;;;;;;;;;;;;;;;;;;5046595;28;19946;-50
2022/07/03 00:35:17;;;;;;;;;;;;;;;;;;5047727;28;19905;-50
2022/07/03 00:37:43;;;;;;;;;;;;;;;;;;5066643;28;19931;-52
2022/07/03 00:40:09;;;;;;;;;;;;;;;;;;5053423;28;19962;-51
2022/07/03 00:42:35;;;;;;;;;;;;;;;;;;5046300;28;19991;-49
2022/07/03 00:45:01;;;;;;;;;;;;;;;;;;5046585;28;19904;-50
2022/07/03 00:47:27;;;;;;;;;;;;;;;;;;5046389;28;19920;-48
2022/07/03 00:49:53;;;;;;;;;;;;;;;;;;5045826;28;19959;-49
2022/07/03 00:52:19;;;;;;;;;;;;;;;;;;5046131;28;20673;-51
2022/07/03 00:54:46;;;;;;;;;;;;;;;;;;5046338;28;19995;-48
2022/07/03 00:57:12;;;;;;;;;;;;;;;;;;5046762;28;19905;-52
2022/07/03 00:59:39;;;;;;;;;;;;;;;;;;5046384;28;19909;-49
2022/07/03 01:02:05;;;;;;;;;;;;;;;;;;5046418;28;20282;-49
2022/07/03 01:04:31;;;;;;;;;;;;;;;;;;5053754;28;19964;-51
2022/07/03 01:06:57;;;;;;;;;;;;;;;;;;5069895;28;19962;-50
2022/07/03 01:09:23;;;;;;;;;;;;;;;;;;5069769;28;19930;-48
2022/07/03 01:11:49;;;;;;;;;;;;;;;;;;5070073;28;19908;-49
2022/07/03 01:14:14;;;;;;;;;;;;;;;;;;5069681;28;20075;-52
2022/07/03 01:16:41;;;;;;;;;;;;;;;;;;5070453;28;19916;-51
2022/07/03 01:19:07;;;;;;;;;;;;;;;;;;5060100;28;21634;-52
2022/07/03 01:21:34;;;;;;;;;;;;;;;;;;5049856;28;19909;-49
2022/07/03 01:24:00;;;;;;;;;;;;;;;;;;5049808;28;20291;-49
2022/07/03 01:26:26;;;;;;;;;;;;;;;;;;5049798;28;19924;-51
2022/07/03 01:28:52;;;;;;;;;;;;;;;;;;5049665;28;19909;-49
2022/07/03 01:31:20;;;;;;;;;;;;;;;;;;5049795;28;19953;-48
2022/07/03 01:33:46;;;;;;;;;;;;;;;;;;5049432;28;20410;-49
2022/07/03 01:36:13;;;;;;;;;;;;;;;;;;5050013;28;20103;-50
2022/07/03 01:38:42;;;;;;;;;;;;;;;;;;5049711;28;19931;-49
2022/07/03 01:41:08;;;;;;;;;;;;;;;;;;5049725;28;20371;-49
2022/07/03 01:43:34;;;;;;;;;;;;;;;;;;5049067;28;20003;-49
2022/07/03 01:46:00;;;;;;;;;;;;;;;;;;5049588;28;19908;-49
2022/07/03 01:48:26;;;;;;;;;;;;;;;;;;5048772;28;19956;-49
2022/07/03 01:50:52;;;;;;;;;;;;;;;;;;5048912;28;20370;-51
2022/07/03 01:53:18;;;;;;;;;;;;;;;;;;5049203;28;19904;-50
2022/07/03 01:55:44;;;;;;;;;;;;;;;;;;5049666;28;19905;-52
2022/07/03 01:58:10;;;;;;;;;;;;;;;;;;5049479;28;19912;-50
2022/07/03 02:00:36;;;;;;;;;;;;;;;;;;5050230;28;20426;-49
2022/07/03 02:03:01;;;;;;;;;;;;;;;;;;5048686;28;19908;-48
2022/07/03 02:05:27;;;;;;;;;;;;;;;;;;5055009;28;20480;-49
2022/07/03 02:07:53;;;;;;;;;;;;;;;;;;5070761;28;19957;-51
2022/07/03 02:10:19;;;;;;;;;;;;;;;;;;5070259;28;19904;-52
2022/07/03 02:12:45;;;;;;;;;;;;;;;;;;5070533;28;19926;-51
2022/07/03 02:15:11;;;;;;;;;;;;;;;;;;5061814;28;19912;-51
2022/07/03 02:17:37;;;;;;;;;;;;;;;;;;5050001;28;19916;-48
2022/07/03 02:20:03;;;;;;;;;;;;;;;;;;5050673;28;19909;-52
2022/07/03 02:22:29;;;;;;;;;;;;;;;;;;5070248;28;19919;-51
2022/07/03 02:24:55;;;;;;;;;;;;;;;;;;5070109;28;20034;-50
2022/07/03 02:27:21;;;;;;;;;;;;;;;;;;5068068;28;19938;-49
2022/07/03 02:29:47;;;;;;;;;;;;;;;;;;5048917;28;19909;-52
2022/07/03 02:32:13;;;;;;;;;;;;;;;;;;5049764;28;19904;-50
2022/07/03 02:34:39;;;;;;;;;;;;;;;;;;5050292;28;19974;-52
2022/07/03 02:37:05;;;;;;;;;;;;;;;;;;5052686;28;19924;-51
2022/07/03 02:39:31;;;;;;;;;;;;;;;;;;5063180;28;19904;-51
2022/07/03 02:41:57;;;;;;;;;;;;;;;;;;5069772;28;19948;-50
2022/07/03 02:44:22;;;;;;;;;;;;;;;;;;5049683;28;19909;-48
2022/07/03 02:46:48;;;;;;;;;;;;;;;;;;5046434;28;19923;-51
2022/07/03 02:49:15;;;;;;;;;;;;;;;;;;5045998;28;19905;-49
2022/07/03 02:51:42;;;;;;;;;;;;;;;;;;5047185;28;19912;-49
2022/07/03 02:54:08;;;;;;;;;;;;;;;;;;5046890;28;19905;-49
2022/07/03 02:56:34;;;;;;;;;;;;;;;;;;5047837;28;19917;-50
2022/07/03 02:59:01;;;;;;;;;;;;;;;;;;5047878;28;20384;-49
2022/07/03 03:01:27;;;;;;;;;;;;;;;;;;5047496;28;20298;-50
2022/07/03 03:03:52;;;;;;;;;;;;;;;;;;5047779;28;19908;-51
2022/07/03 03:06:18;;;;;;;;;;;;;;;;;;5047864;28;19978;-50
2022/07/03 03:08:44;;;;;;;;;;;;;;;;;;5047638;28;20364;-50
2022/07/03 03:11:10;;;;;;;;;;;;;;;;;;5047983;28;19916;-52
2022/07/03 03:13:37;;;;;;;;;;;;;;;;;;5047838;28;20361;-50
2022/07/03 03:16:03;;;;;;;;;;;;;;;;;;5049926;28;19908;-50
2022/07/03 03:18:30;;;;;;;;;;;;;;;;;;5067217;28;19991;-48
2022/07/03 03:20:57;;;;;;;;;;;;;;;;;;5067298;28;19931;-51
2022/07/03 03:23:23;;;;;;;;;;;;;;;;;;5067289;28;20398;-51
2022/07/03 03:25:48;;;;;;;;;;;;;;;;;;5066926;28;19908;-52
2022/07/03 03:28:14;;;;;;;;;;;;;;;;;;5066631;28;19905;-50
2022/07/03 03:30:40;;;;;;;;;;;;;;;;;;5067463;28;19946;-49
2022/07/03 03:33:09;;;;;;;;;;;;;;;;;;5066965;28;20409;-51
2022/07/03 03:35:35;;;;;;;;;;;;;;;;;;5067168;28;19915;-50
2022/07/03 03:38:01;;;;;;;;;;;;;;;;;;5066895;28;19904;-50
2022/07/03 03:40:27;;;;;;;;;;;;;;;;;;5067007;28;19908;-51
2022/07/03 03:42:53;;;;;;;;;;;;;;;;;;5066855;28;19916;-49
2022/07/03 03:45:19;;;;;;;;;;;;;;;;;;5066930;28;19908;-50
2022/07/03 03:47:44;;;;;;;;;;;;;;;;;;5066340;28;19908;-52
2022/07/03 03:50:10;;;;;;;;;;;;;;;;;;5067068;28;19931;-49
2022/07/03 03:52:36;;;;;;;;;;;;;;;;;;5066944;28;19900;-50
2022/07/03 03:55:02;;;;;;;;;;;;;;;;;;5067074;28;19915;-49
2022/07/03 03:57:28;;;;;;;;;;;;;;;;;;5066927;28;20304;-51
2022/07/03 03:59:54;;;;;;;;;;;;;;;;;;5066717;28;19927;-49
2022/07/03 04:02:21;;;;;;;;;;;;;;;;;;5066447;28;19991;-49
2022/07/03 04:04:47;;;;;;;;;;;;;;;;;;5066423;28;20314;-49
2022/07/03 04:07:13;;;;;;;;;;;;;;;;;;5067328;28;20133;-49
2022/07/03 04:09:38;;;;;;;;;;;;;;;;;;5066688;28;19904;-50
2022/07/03 04:12:04;;;;;;;;;;;;;;;;;;5066697;28;19904;-51
2022/07/03 04:14:31;;;;;;;;;;;;;;;;;;5066589;28;19909;-50
2022/07/03 04:16:57;;;;;;;;;;;;;;;;;;5066348;28;19950;-49
2022/07/03 04:19:23;;;;;;;;;;;;;;;;;;5066580;28;19912;-49
2022/07/03 04:21:51;;;;;;;;;;;;;;;;;;5066357;28;19914;-50
2022/07/03 04:24:17;;;;;;;;;;;;;;;;;;5066787;28;19954;-49
2022/07/03 04:26:44;;;;;;;;;;;;;;;;;;5066201;28;19916;-49
2022/07/03 04:29:10;;;;;;;;;;;;;;;;;;5066737;28;20341;-49
2022/07/03 04:31:36;;;;;;;;;;;;;;;;;;5066287;28;19908;-48
2022/07/03 04:34:03;;;;;;;;;;;;;;;;;;5066734;28;20294;-50
2022/07/03 04:36:28;;;;;;;;;;;;;;;;;;5066638;28;19951;-51
2022/07/03 04:38:54;;;;;;;;;;;;;;;;;;5068003;28;20009;-49
2022/07/03 04:41:20;;;;;;;;;;;;;;;;;;5070480;28;19908;-51
2022/07/03 04:43:46;;;;;;;;;;;;;;;;;;5070180;28;19908;-52
2022/07/03 04:46:12;;;;;;;;;;;;;;;;;;5070516;28;21062;-50
2022/07/03 04:48:39;;;;;;;;;;;;;;;;;;5070083;28;19912;-49
2022/07/03 04:51:05;;;;;;;;;;;;;;;;;;5070399;28;19904;-48
2022/07/03 04:53:31;;;;;;;;;;;;;;;;;;5070429;28;19949;-48
2022/07/03 04:55:57;;;;;;;;;;;;;;;;;;5069833;28;19912;-49
2022/07/03 04:58:25;;;;;;;;;;;;;;;;;;5070154;28;19908;-51
2022/07/03 05:00:52;;;;;;;;;;;;;;;;;;5068265;28;20404;-48
2022/07/03 05:03:19;;;;;;;;;;;;;;;;;;5070186;28;19904;-50
2022/07/03 05:05:45;;;;;;;;;;;;;;;;;;5070056;28;19913;-48
2022/07/03 05:08:10;;;;;;;;;;;;;;;;;;5070570;28;19908;-52
2022/07/03 05:10:36;;;;;;;;;;;;;;;;;;5069952;28;19963;-51
2022/07/03 05:13:02;;;;;;;;;;;;;;;;;;5069819;28;20547;-51
2022/07/03 05:15:28;;;;;;;;;;;;;;;;;;5070271;28;19915;-48
2022/07/03 05:17:54;;;;;;;;;;;;;;;;;;5069733;28;19905;-49
2022/07/03 05:20:29;;;;;;;;;;;;;;;;;;5068495;28;19908;-50
2022/07/03 05:22:55;;;;;;;;;;;;;;;;;;5069655;28;19973;-49
2022/07/03 05:25:21;;;;;;;;;;;;;;;;;;5069622;28;20356;-50
2022/07/03 05:27:47;;;;;;;;;;;;;;;;;;5069438;28;19915;-51
2022/07/03 05:30:14;;;;;;;;;;;;;;;;;;5069455;28;19931;-50
2022/07/03 05:32:40;;;;;;;;;;;;;;;;;;5069846;28;19911;-49
2022/07/03 05:35:07;;;;;;;;;;;;;;;;;;5069859;28;20326;-49
2022/07/03 05:37:34;;;;;;;;;;;;;;;;;;5069732;28;19904;-51
2022/07/03 05:39:59;;;;;;;;;;;;;;;;;;5068914;28;19938;-49
2022/07/03 05:42:25;;;;;;;;;;;;;;;;;;5069824;28;19908;-51
2022/07/03 05:44:51;;;;;;;;;;;;;;;;;;5068906;28;19965;-48
2022/07/03 05:47:17;;;;;;;;;;;;;;;;;;5069501;28;19908;-51
2022/07/03 05:49:43;;;;;;;;;;;;;;;;;;5068469;28;19946;-48
2022/07/03 05:52:09;;;;;;;;;;;;;;;;;;5060104;28;19905;-49
2022/07/03 05:54:35;;;;;;;;;;;;;;;;;;5050405;28;20330;-49
2022/07/03 05:57:01;;;;;;;;;;;;;;;;;;5049626;28;19948;-51
2022/07/03 05:59:27;;;;;;;;;;;;;;;;;;5068475;28;20330;-50
2022/07/03 06:01:53;;;;;;;;;;;;;;;;;;5069030;28;19905;-48
2022/07/03 06:04:19;;;;;;;;;;;;;;;;;;5069450;28;20371;-48
2022/07/03 06:06:45;;;;;;;;;;;;;;;;;;5069271;28;19916;-50
2022/07/03 06:09:11;;;;;;;;;;;;;;;;;;5069768;28;19904;-49
2022/07/03 06:11:37;;;;;;;;;;;;;;;;;;5069178;28;19913;-51
2022/07/03 06:14:03;;;;;;;;;;;;;;;;;;5063605;28;19913;-48
2022/07/03 06:16:29;;;;;;;;;;;;;;;;;;5050303;28;20669;-51
2022/07/03 06:18:55;;;;;;;;;;;;;;;;;;5051644;28;19909;-51
2022/07/03 06:21:21;;;;;;;;;;;;;;;;;;5050558;28;19998;-51
2022/07/03 06:23:47;;;;;;;;;;;;;;;;;;5050261;28;20001;-51
2022/07/03 06:26:13;;;;;;;;;;;;;;;;;;5050281;28;19912;-50
2022/07/03 06:28:39;;;;;;;;;;;;;;;;;;5050325;28;20006;-50
2022/07/03 06:31:05;;;;;;;;;;;;;;;;;;5050099;28;19905;-50
2022/07/03 06:33:31;;;;;;;;;;;;;;;;;;5050152;28;19904;-48
2022/07/03 06:35:57;;;;;;;;;;;;;;;;;;5050037;28;19940;-50
2022/07/03 06:38:23;;;;;;;;;;;;;;;;;;5050325;28;19999;-50
2022/07/03 06:40:49;;;;;;;;;;;;;;;;;;5049857;28;20198;-49
2022/07/03 06:43:15;;;;;;;;;;;;;;;;;;5050131;28;19931;-51
2022/07/03 06:45:41;;;;;;;;;;;;;;;;;;5049992;28;19912;-51
2022/07/03 06:48:06;;;;;;;;;;;;;;;;;;5049747;28;20551;-51
2022/07/03 06:50:32;;;;;;;;;;;;;;;;;;5049763;28;19909;-48
2022/07/03 06:52:58;;;;;;;;;;;;;;;;;;5049452;28;19951;-51
2022/07/03 06:55:24;;;;;;;;;;;;;;;;;;5049986;28;19908;-48
2022/07/03 06:57:50;;;;;;;;;;;;;;;;;;5049479;28;19905;-49
2022/07/03 07:00:16;;;;;;;;;;;;;;;;;;5051190;28;19904;-50
2022/07/03 07:02:42;;;;;;;;;;;;;;;;;;5069732;28;19977;-51
2022/07/03 07:05:08;;;;;;;;;;;;;;;;;;5069872;28;19912;-50
2022/07/03 07:07:34;;;;;;;;;;;;;;;;;;5069285;28;19913;-51
2022/07/03 07:10:00;;;;;;;;;;;;;;;;;;5069260;28;19926;-51
2022/07/03 07:12:26;;;;;;;;;;;;;;;;;;5069641;28;19904;-49
2022/07/03 07:14:52;;;;;;;;;;;;;;;;;;5058899;28;19959;-48
2022/07/03 07:17:18;;;;;;;;;;;;;;;;;;5050699;28;19920;-49
2022/07/03 07:19:44;;;;;;;;;;;;;;;;;;5049257;28;19905;-51
2022/07/03 07:22:10;;;;;;;;;;;;;;;;;;5049830;28;20000;-48
2022/07/03 07:24:35;;;;;;;;;;;;;;;;;;5049248;28;19963;-49
2022/07/03 07:27:01;;;;;;;;;;;;;;;;;;5049112;28;19908;-52
2022/07/03 07:29:27;;;;;;;;;;;;;;;;;;5049029;28;19954;-52
2022/07/03 07:31:53;;;;;;;;;;;;;;;;;;5049463;28;19905;-50
2022/07/03 07:34:19;;;;;;;;;;;;;;;;;;5067886;28;20371;-48
2022/07/03 07:36:45;;;;;;;;;;;;;;;;;;5057074;28;19912;-49
2022/07/03 07:39:11;;;;;;;;;;;;;;;;;;5058601;28;19905;-52
2022/07/03 07:41:37;;;;;;;;;;;;;;;;;;5049683;28;19908;-52
2022/07/03 07:44:03;;;;;;;;;;;;;;;;;;5061979;28;20000;-49
2022/07/03 07:46:29;;;;;;;;;;;;;;;;;;5049927;28;19912;-52
2022/07/03 07:48:55;;;;;;;;;;;;;;;;;;5049515;28;19904;-52
2022/07/03 07:51:21;;;;;;;;;;;;;;;;;;5049170;28;20368;-52
2022/07/03 07:53:47;;;;;;;;;;;;;;;;;;5049160;28;19909;-50
2022/07/03 07:56:13;;;;;;;;;;;;;;;;;;5050019;28;19992;-52
2022/07/03 07:58:39;;;;;;;;;;;;;;;;;;5049309;28;20438;-49
2022/07/03 08:06:35;;;;;;;;;;;;;;;;;;5069595;28;19919;-51
2022/07/03 08:09:00;;;;;;;;;;;;;;;;;;5069272;28;19991;-49
2022/07/03 08:11:26;;;;;;;;;;;;;;;;;;5069592;28;20023;-48
2022/07/03 08:13:52;;;;;;;;;;;;;;;;;;5068707;28;19904;-48
2022/07/03 08:16:18;;;;;;;;;;;;;;;;;;5056097;28;19915;-48
2022/07/03 08:18:44;;;;;;;;;;;;;;;;;;5049311;28;19909;-49
2022/07/03 08:21:10;;;;;;;;;;;;;;;;;;5049692;28;19913;-52
2022/07/03 08:23:36;;;;;;;;;;;;;;;;;;5049181;28;19912;-52
2022/07/03 08:26:02;;;;;;;;;;;;;;;;;;5049424;28;20003;-51
2022/07/03 08:28:28;;;;;;;;;;;;;;;;;;5049259;28;19915;-50
2022/07/03 08:30:54;;;;;;;;;;;;;;;;;;5049042;28;19947;-48
2022/07/03 08:33:20;;;;;;;;;;;;;;;;;;5049251;28;19947;-48
2022/07/03 08:35:46;;;;;;;;;;;;;;;;;;5065038;28;19938;-49
2022/07/03 08:38:12;;;;;;;;;;;;;;;;;;5069687;28;19905;-52
2022/07/03 08:40:38;;;;;;;;;;;;;;;;;;5068345;28;19912;-51
2022/07/03 08:43:04;;;;;;;;;;;;;;;;;;5069072;28;19915;-51
2022/07/03 08:45:30;;;;;;;;;;;;;;;;;;5064081;28;19975;-49
2022/07/03 08:47:56;;;;;;;;;;;;;;;;;;5068781;28;19913;-51
2022/07/03 08:50:22;;;;;;;;;;;;;;;;;;5068861;28;19909;-51
2022/07/03 08:52:47;;;;;;;;;;;;;;;;;;5067894;28;19908;-48
2022/07/03 08:55:13;;;;;;;;;;;;;;;;;;5067803;28;19913;-49
2022/07/03 08:57:40;;;;;;;;;;;;;;;;;;5067878;28;19958;-48
2022/07/03 09:00:06;;;;;;;;;;;;;;;;;;5067687;28;19918;-48
2022/07/03 09:02:32;;;;;;;;;;;;;;;;;;5067829;28;19904;-48
2022/07/03 09:04:58;;;;;;;;;;;;;;;;;;5067250;28;19923;-50
2022/07/03 09:07:24;;;;;;;;;;;;;;;;;;5068190;28;19908;-50
2022/07/03 09:09:51;;;;;;;;;;;;;;;;;;5062150;28;19923;-48
2022/07/03 09:12:18;;;;;;;;;;;;;;;;;;5049890;28;19916;-50
2022/07/03 09:14:43;;;;;;;;;;;;;;;;;;5066953;28;19915;-49
2022/07/03 09:17:10;;;;;;;;;;;;;;;;;;5066191;28;20363;-49
2022/07/03 09:19:36;;;;;;;;;;;;;;;;;;5067520;28;20286;-51
2022/07/03 09:22:02;;;;;;;;;;;;;;;;;;5067638;28;19998;-50
2022/07/03 09:24:28;;;;;;;;;;;;;;;;;;5058578;28;19913;-48
2022/07/03 09:26:54;;;;;;;;;;;;;;;;;;5062588;28;20379;-50
2022/07/03 09:29:20;;;;;;;;;;;;;;;;;;5065973;28;19909;-51
2022/07/03 09:31:46;;;;;;;;;;;;;;;;;;5061698;28;19951;-51
2022/07/03 09:34:12;;;;;;;;;;;;;;;;;;5052304;28;19904;-51
2022/07/03 09:36:38;;;;;;;;;;;;;;;;;;5068623;28;19923;-52
2022/07/03 09:39:04;;;;;;;;;;;;;;;;;;5071685;28;20287;-51
2022/07/03 09:41:30;;;;;;;;;;;;;;;;;;5071435;28;19908;-51
2022/07/03 09:43:56;;;;;;;;;;;;;;;;;;5071475;28;19963;-51
2022/07/03 09:46:22;;;;;;;;;;;;;;;;;;5063877;28;19961;-49
2022/07/03 09:48:48;;;;;;;;;;;;;;;;;;5054546;28;19908;-50
2022/07/03 09:51:14;;;;;;;;;;;;;;;;;;5052196;28;19908;-51
2022/07/03 09:53:40;;;;;;;;;;;;;;;;;;5053805;28;19954;-49
2022/07/03 09:56:06;;;;;;;;;;;;;;;;;;5088355;28;19908;-49
2022/07/03 09:58:32;;;;;;;;;;;;;;;;;;5090525;28;19947;-48
2022/07/03 10:00:58;;;;;;;;;;;;;;;;;;5090059;28;19966;-49
2022/07/03 10:03:24;;;;;;;;;;;;;;;;;;5091912;28;19908;-48
2022/07/03 10:05:50;;;;;;;;;;;;;;;;;;5091484;28;19919;-51
2022/07/03 10:08:16;;;;;;;;;;;;;;;;;;5091893;28;19930;-52
2022/07/03 10:10:42;;;;;;;;;;;;;;;;;;5063087;28;19909;-50
2022/07/03 10:13:08;;;;;;;;;;;;;;;;;;5050256;28;20422;-50
2022/07/03 10:15:37;;;;;;;;;;;;;;;;;;5059996;28;19915;-50
2022/07/03 10:18:04;;;;;;;;;;;;;;;;;;5070084;28;19908;-50
2022/07/03 10:20:30;;;;;;;;;;;;;;;;;;5070212;28;19909;-49
2022/07/03 10:22:55;;;;;;;;;;;;;;;;;;5069804;28;20417;-52
2022/07/03 10:25:22;;;;;;;;;;;;;;;;;;5070125;28;20166;-48
2022/07/03 10:27:48;;;;;;;;;;;;;;;;;;5059298;28;19912;-49
2022/07/03 10:30:14;;;;;;;;;;;;;;;;;;5050013;28;19909;-51
2022/07/03 10:32:41;;;;;;;;;;;;;;;;;;5050062;28;20274;-48
2022/07/03 10:35:07;;;;;;;;;;;;;;;;;;5049960;28;19904;-49
2022/07/03 10:37:33;;;;;;;;;;;;;;;;;;5049547;28;19928;-51
2022/07/03 10:44:45;;;;;;;;;;;;;;;;;;5049947;28;19909;-51
2022/07/03 10:45:30;;;;;;;;;;;;;;;;;;5052757;28;20029;-50
2022/07/03 10:47:55;;;;;;;;;;;;;;;;;;5049113;28;19917;-50
2022/07/03 10:50:21;;;;;;;;;;;;;;;;;;5069678;28;20374;-49
2022/07/03 10:52:47;;;;;;;;;;;;;;;;;;5061001;28;19911;-51
2022/07/03 10:55:13;;;;;;;;;;;;;;;;;;5049687;28;19931;-51
2022/07/03 10:57:39;;;;;;;;;;;;;;;;;;5049331;28;19904;-49
2022/07/03 11:00:06;;;;;;;;;;;;;;;;;;5047074;28;19905;-51
2022/07/03 11:02:32;;;;;;;;;;;;;;;;;;5060748;28;19915;-56
2022/07/03 11:04:58;;;;;;;;;;;;;;;;;;5052595;28;20010;-56
2022/07/03 11:07:24;;;;;;;;;;;;;;;;;;5054933;28;19954;-55
2022/07/03 11:09:50;;;;;;;;;;;;;;;;;;5050062;28;20006;-56
2022/07/03 11:12:16;;;;;;;;;;;;;;;;;;5057344;28;19912;-56
2022/07/03 11:14:42;;;;;;;;;;;;;;;;;;5056827;28;19908;-56
2022/07/03 11:17:08;;;;;;;;;;;;;;;;;;5056284;28;19912;-55
2022/07/03 11:19:34;;;;;;;;;;;;;;;;;;5056147;28;20011;-55
2022/07/03 11:22:00;;;;;;;;;;;;;;;;;;5058663;28;20297;-55
2022/07/03 11:24:26;;;;;;;;;;;;;;;;;;5059450;28;19916;-56
2022/07/03 11:26:52;;;;;;;;;;;;;;;;;;5059705;28;20016;-56
2022/07/03 11:29:17;;;;;;;;;;;;;;;;;;5068206;28;19904;-56
2022/07/03 11:31:43;;;;;;;;;;;;;;;;;;5064890;28;19912;-56
2022/07/03 11:34:10;;;;;;;;;;;;;;;;;;5065600;28;20370;-57
2022/07/03 11:36:37;;;;;;;;;;;;;;;;;;5066721;28;19994;-56
2022/07/03 11:39:04;;;;;;;;;;;;;;;;;;5060543;28;19909;-56
2022/07/03 11:41:29;;;;;;;;;;;;;;;;;;5057079;28;20313;-55
2022/07/03 11:43:56;;;;;;;;;;;;;;;;;;5048463;28;19916;-50
2022/07/03 11:46:23;;;;;;;;;;;;;;;;;;5053298;28;20335;-52
2022/07/03 11:48:49;;;;;;;;;;;;;;;;;;5050054;28;19915;-53
2022/07/03 11:51:15;;;;;;;;;;;;;;;;;;5049058;28;19916;-54
2022/07/03 11:53:41;;;;;;;;;;;;;;;;;;5056142;28;19962;-53
2022/07/03 11:56:08;;;;;;;;;;;;;;;;;;5055945;28;19917;-53
2022/07/03 11:58:34;;;;;;;;;;;;;;;;;;5059701;28;19908;-52
2022/07/03 12:01:01;;;;;;;;;;;;;;;;;;5066038;28;19919;-53
2022/07/03 12:03:27;;;;;;;;;;;;;;;;;;5056684;28;19938;-54
2022/07/03 12:05:53;;;;;;;;;;;;;;;;;;5050319;28;19916;-53
2022/07/03 12:08:20;;;;;;;;;;;;;;;;;;5054275;28;21144;-54
2022/07/03 12:10:47;;;;;;;;;;;;;;;;;;5059367;28;19920;-54
2022/07/03 12:13:13;;;;;;;;;;;;;;;;;;5047943;28;20011;-55
2022/07/03 12:15:39;;;;;;;;;;;;;;;;;;5051737;28;19995;-54
2022/07/03 12:18:05;;;;;;;;;;;;;;;;;;5060851;28;19962;-54
2022/07/03 12:20:31;;;;;;;;;;;;;;;;;;5048842;28;19916;-55
2022/07/03 12:22:57;;;;;;;;;;;;;;;;;;5064038;28;20299;-55
2022/07/03 12:25:23;;;;;;;;;;;;;;;;;;5058955;28;19919;-54
2022/07/03 12:27:49;;;;;;;;;;;;;;;;;;5059367;28;20020;-54
2022/07/03 12:30:15;;;;;;;;;;;;;;;;;;5060135;28;19912;-56
2022/07/03 12:32:41;;;;;;;;;;;;;;;;;;5053058;28;19916;-55
2022/07/03 12:35:07;;;;;;;;;;;;;;;;;;5065482;28;20421;-55
2022/07/03 12:37:33;;;;;;;;;;;;;;;;;;5049584;28;19916;-54
2022/07/03 12:39:59;;;;;;;;;;;;;;;;;;5067588;28;20697;-53
2022/07/03 12:42:25;;;;;;;;;;;;;;;;;;5055611;28;20401;-55
2022/07/03 12:44:51;;;;;;;;;;;;;;;;;;5048335;28;19942;-53
2022/07/03 12:47:17;;;;;;;;;;;;;;;;;;5063035;28;20318;-52
2022/07/03 12:49:43;;;;;;;;;;;;;;;;;;5055604;28;19971;-53
2022/07/03 12:52:09;;;;;;;;;;;;;;;;;;5063114;28;19958;-54
2022/07/03 12:54:35;;;;;;;;;;;;;;;;;;5057446;28;19928;-54
2022/07/03 12:59:16;;;;;;;;;;;;;;;;;;5053630;28;19919;-54
2022/07/03 12:59:47;;;;;;;;;;;;;;;;;;5054063;28;19916;-54
2022/07/03 13:02:13;;;;;;;;;;;;;;;;;;5070858;28;19954;-55
2022/07/03 13:04:39;;;;;;;;;;;;;;;;;;5061180;28;19952;-54
2022/07/03 13:07:06;;;;;;;;;;;;;;;;;;5071662;28;19931;-54
2022/07/03 13:09:32;;;;;;;;;;;;;;;;;;5059675;28;20015;-54
2022/07/03 13:11:58;;;;;;;;;;;;;;;;;;5052596;28;20027;-54
2022/07/03 13:14:24;;;;;;;;;;;;;;;;;;5051948;28;19916;-54
2022/07/03 13:16:50;;;;;;;;;;;;;;;;;;5058426;28;19924;-54
2022/07/03 13:19:16;;;;;;;;;;;;;;;;;;5063893;28;19913;-53
2022/07/03 13:21:45;;;;;;;;;;;;;;;;;;5058469;28;19913;-55
2022/07/03 13:24:12;;;;;;;;;;;;;;;;;;5053243;28;19909;-55
2022/07/03 13:26:38;;;;;;;;;;;;;;;;;;5053881;28;19917;-54
2022/07/03 13:29:04;;;;;;;;;;;;;;;;;;5058541;28;19923;-55
2022/07/03 13:31:30;;;;;;;;;;;;;;;;;;5062637;28;20411;-55
2022/07/03 13:33:56;;;;;;;;;;;;;;;;;;5058419;28;19921;-55
2022/07/03 13:36:22;;;;;;;;;;;;;;;;;;5053098;28;19909;-56
2022/07/03 13:38:49;;;;;;;;;;;;;;;;;;5067897;28;19975;-55
2022/07/03 13:41:16;;;;;;;;;;;;;;;;;;5055436;28;19912;-55
2022/07/03 13:43:42;;;;;;;;;;;;;;;;;;5061938;28;20312;-55
2022/07/03 13:46:08;;;;;;;;;;;;;;;;;;5057305;28;19916;-56
2022/07/03 13:48:34;;;;;;;;;;;;;;;;;;5055035;28;20473;-56
2022/07/03 13:51:01;;;;;;;;;;;;;;;;;;5055835;28;20290;-56
2022/07/03 13:53:28;;;;;;;;;;;;;;;;;;5050884;28;19921;-56
2022/07/03 13:55:54;;;;;;;;;;;;;;;;;;5057042;28;20298;-55
2022/07/03 13:58:20;;;;;;;;;;;;;;;;;;5051293;28;19913;-55
2022/07/03 14:00:46;;;;;;;;;;;;;;;;;;5049319;28;19932;-56
2022/07/03 14:03:12;;;;;;;;;;;;;;;;;;5057194;28;20391;-55
2022/07/03 14:05:38;;;;;;;;;;;;;;;;;;5059343;28;19967;-55
2022/07/03 14:08:04;;;;;;;;;;;;;;;;;;5055886;28;19920;-56
2022/07/03 14:10:29;;;;;;;;;;;;;;;;;;5060193;28;19923;-56
2022/07/03 14:12:55;;;;;;;;;;;;;;;;;;5053285;28;20307;-56
2022/07/03 14:15:21;;;;;;;;;;;;;;;;;;5059127;28;19943;-56
2022/07/03 14:17:48;;;;;;;;;;;;;;;;;;5055007;28;19913;-57
2022/07/03 14:20:15;;;;;;;;;;;;;;;;;;5063840;28;19912;-56
2022/07/03 14:22:41;;;;;;;;;;;;;;;;;;5058116;28;19962;-55
2022/07/03 14:25:09;;;;;;;;;;;;;;;;;;5055308;28;19917;-56
2022/07/03 14:33:04;;;;;;;;;;;;;;;;;;5054939;28;19919;-56
2022/07/03 14:35:30;;;;;;;;;;;;;;;;;;5053898;28;19921;-56
2022/07/03 14:37:56;;;;;;;;;;;;;;;;;;5049495;28;19916;-54
2022/07/03 14:40:22;;;;;;;;;;;;;;;;;;5052317;28;20395;-55
2022/07/03 14:42:48;;;;;;;;;;;;;;;;;;5062604;28;19958;-55
2022/07/03 14:45:14;;;;;;;;;;;;;;;;;;5059579;28;19994;-56
2022/07/03 14:47:40;;;;;;;;;;;;;;;;;;5056010;28;19932;-56
2022/07/03 14:50:06;;;;;;;;;;;;;;;;;;5059384;28;19925;-55
2022/07/03 14:52:32;;;;;;;;;;;;;;;;;;5056043;28;19971;-56
2022/07/03 14:54:58;;;;;;;;;;;;;;;;;;5052222;28;20454;-55
2022/07/03 14:57:23;;;;;;;;;;;;;;;;;;5047520;28;19919;-55
2022/07/03 14:59:51;;;;;;;;;;;;;;;;;;5060500;28;19952;-57
2022/07/03 15:02:19;;;;;;;;;;;;;;;;;;5058115;28;19916;-56
2022/07/03 15:04:45;;;;;;;;;;;;;;;;;;5058054;28;19917;-55
2022/07/03 15:07:11;;;;;;;;;;;;;;;;;;5061593;28;19923;-55
2022/07/03 15:09:37;;;;;;;;;;;;;;;;;;5048142;28;20354;-55
2022/07/03 15:14:47;;;;;;;;;;;;;;;;;;5059210;28;20406;-55
2022/07/03 15:17:14;;;;;;;;;;;;;;;;;;5051971;28;19956;-56
2022/07/03 15:19:40;;;;;;;;;;;;;;;;;;5050232;28;20376;-56
2022/07/03 15:22:07;;;;;;;;;;;;;;;;;;5055395;28;19920;-55
2022/07/03 15:24:35;;;;;;;0.40;0.40;;;;;;;;;;5053474;28;20846;-53
2022/07/03 15:27:01;;;;;;;1.67;0.52;;;;;;;;;;5053289;28;20040;-53
2022/07/03 15:29:27;;;;;;;0.40;0.40;;;;;;;;;;5049453;28;20400;-52
2022/07/03 15:31:54;;;;;;;0.40;0.40;;;;;;;;;;5047849;28;20031;-53
2022/07/03 15:34:20;;;;;;;0.45;0.40;;;;;;;;;;5048838;28;20691;-53
2022/07/03 15:36:52;;;;;;;0.40;0.40;;;;;;;;;;5050752;28;20709;-51
2022/07/03 15:39:38;;;;;;;0.40;0.40;;;;;;;;;;5053856;28;20040;-51
2022/07/03 15:42:27;;;;;;;0.60;0.47;;;;;;;;;;5054432;28;20451;-52
2022/07/03 15:45:03;;;;;;;0.40;0.40;;;;;;;;;;5057352;28;20122;-49
2022/07/03 15:47:44;;;;;;;0.50;0.50;;;;;;;;;;5055226;28;20039;-49
2022/07/03 15:50:19;;;;;;;0.30;0.30;;;;;;;;;;5050566;28;20021;-49
2022/07/03 15:52:49;;;;;;;0.30;0.30;;;;;;;;;;5053879;28;20207;-50
2022/07/03 15:55:20;;;;;;;0.30;0.30;;;;;;;;;;5057792;28;20020;-53
2022/07/03 15:57:50;;;;;;;0.30;0.30;;;;;;;;;;5056020;28;20036;-53
2022/07/03 16:00:20;;;;;;;0.60;0.45;;;;;;;;;;5052354;28;20496;-52
2022/07/03 16:03:02;;;;;;;0.20;0.20;;;;;;;;;;5063223;28;20032;-53
2022/07/03 16:05:32;;;;;;;0.40;0.40;;;;;;;;;;5048484;28;20538;-52
2022/07/03 16:07:59;;;;;;;0.50;0.43;;;;;;;;;;5047828;28;20024;-53
2022/07/03 16:10:25;;;;;;;0.55;0.40;;;;;;;;;;5060675;28;20027;-50
2022/07/03 16:12:53;;;;;;;0.30;0.30;;;;;;;;;;5063397;28;20415;-51
2022/07/03 16:15:20;;;;;;;0.30;0.30;;;;;;;;;;5062796;28;20020;-51
2022/07/03 16:17:49;;;;;;;0.40;0.40;;;;;;;;;;5060043;28;20679;-49
2022/07/03 16:20:15;;;;;;;0.52;0.40;;;;;;;;;;5055022;28;20495;-49
2022/07/03 16:22:43;;;;;;;0.40;0.40;;;;;;;;;;5051378;28;20048;-50
2022/07/03 16:25:09;;;;;;;0.50;0.50;;;;;;;;;;5050088;28;20492;-50
2022/07/03 16:27:36;;;;;;;0.30;0.30;;;;;;;;;;5056723;28;20024;-52
2022/07/03 16:30:04;;;;;;;0.40;0.40;;;;;;;;;;5049407;28;20074;-50
2022/07/03 16:32:37;;;;;;;0.38;0.38;;;;;;;;;;5058703;28;20036;-52
2022/07/03 16:35:25;;;;;;;0.32;0.30;;;;;;;;;;5058227;28;20021;-52
2022/07/03 16:37:59;;;;;;;0.40;0.40;;;;;;;;;;5051990;28;20032;-54
2022/07/03 16:40:25;;;;;;;;;;;;;;;;;;5070430;28;20030;-55
2022/07/03 16:42:52;;;;;;;;;;;;;;;;;;5068276;28;19904;-57
2022/07/03 16:45:18;;;;;;;;;;;;;;;;;;5062848;28;19957;-56
2022/07/03 16:47:44;;;;;;;;;;;;;;;;;;5062530;28;19920;-55